Time;durP1;ratioP1;P1;durP2;ratioP2;P2;SDS_P1;SDS_P2;PMS_P1;PMS_P2;Temp;Humidity;BMP_temperature;BMP_pressure;BME280_temperature;BME280_humidity;BME280_pressure;Samples;Min_cycle;Max_cycle;Signal;HPM_P1;HPM_P2
2022/06/08 00:00:18;;;;;;;7.63;1.90;;;18.00;99.90;;;;;;4859513;29;20022;-79
2022/06/08 00:02:48;;;;;;;5.95;2.00;;;17.90;99.90;;;;;;4859689;29;20022;-79
2022/06/08 00:05:13;;;;;;;4.05;1.85;;;18.00;99.90;;;;;;4859937;29;20063;-79
2022/06/08 00:07:39;;;;;;;5.10;2.08;;;17.90;99.90;;;;;;4858519;29;20118;-78
2022/06/08 00:10:07;;;;;;;4.63;2.10;;;17.90;99.90;;;;;;4859809;29;20029;-79
2022/06/08 00:12:32;;;;;;;4.25;2.20;;;17.80;99.90;;;;;;4859248;29;20043;-78
2022/06/08 00:14:58;;;;;;;3.55;1.90;;;17.70;99.90;;;;;;4859105;29;20379;-78
2022/06/08 00:17:24;;;;;;;4.47;2.35;;;17.80;99.90;;;;;;4859389;29;20053;-79
2022/06/08 00:19:49;;;;;;;6.07;2.30;;;17.90;99.90;;;;;;4858781;29;20034;-79
2022/06/08 00:22:17;;;;;;;4.78;2.25;;;17.80;99.90;;;;;;4858119;29;20036;-78
2022/06/08 00:24:43;;;;;;;5.22;2.10;;;17.70;99.90;;;;;;4859276;29;20517;-78
2022/06/08 00:27:09;;;;;;;6.95;2.53;;;17.60;99.90;;;;;;4859176;29;20065;-79
2022/06/08 00:29:35;;;;;;;6.18;2.72;;;17.40;99.90;;;;;;4859130;29;20033;-79
2022/06/08 00:32:00;;;;;;;7.18;2.45;;;17.50;99.90;;;;;;4859366;29;20037;-79
2022/06/08 00:34:26;;;;;;;4.68;2.65;;;17.40;99.90;;;;;;4859837;29;20034;-79
2022/06/08 00:36:52;;;;;;;3.38;1.70;;;17.40;99.90;;;;;;4858611;29;20124;-79
2022/06/08 00:39:17;;;;;;;5.15;1.92;;;17.40;99.90;;;;;;4859336;29;20481;-79
2022/06/08 00:42:00;;;;;;;3.90;2.03;;;17.30;99.90;;;;;;4859116;29;20041;-79
2022/06/08 00:44:37;;;;;;;4.07;2.33;;;17.40;99.90;;;;;;4859255;29;20058;-79
2022/06/08 00:47:07;;;;;;;4.78;1.77;;;17.40;99.90;;;;;;4859773;29;20108;-79
2022/06/08 00:49:41;;;;;;;4.80;2.05;;;17.30;99.90;;;;;;4858113;29;20040;-79
2022/06/08 00:52:08;;;;;;;5.75;1.88;;;17.30;99.90;;;;;;4859403;29;20093;-79
2022/06/08 00:54:37;;;;;;;5.50;2.40;;;17.40;99.90;;;;;;4859198;29;20482;-79
2022/06/08 00:57:16;;;;;;;6.50;2.42;;;17.40;99.90;;;;;;4859102;29;20386;-79
2022/06/08 00:59:52;;;;;;;5.28;1.83;;;17.40;99.90;;;;;;4859097;29;20026;-79
2022/06/08 01:02:18;;;;;;;5.07;2.50;;;17.40;99.90;;;;;;4859302;29;20040;-79
2022/06/08 01:04:44;;;;;;;6.13;2.42;;;17.40;99.90;;;;;;4859573;29;20026;-79
2022/06/08 01:07:17;;;;;;;4.18;2.13;;;17.40;99.90;;;;;;4859064;29;20026;-79
2022/06/08 01:09:44;;;;;;;5.07;2.45;;;17.40;99.90;;;;;;4858833;29;20565;-79
2022/06/08 01:12:13;;;;;;;3.75;1.98;;;17.40;99.90;;;;;;4859577;29;20137;-78
2022/06/08 01:14:40;;;;;;;5.82;2.38;;;17.40;99.90;;;;;;4862079;29;20161;-79
2022/06/08 01:17:09;;;;;;;4.32;2.28;;;17.40;99.90;;;;;;4862189;29;20132;-79
2022/06/08 01:19:37;;;;;;;6.80;2.42;;;17.40;99.90;;;;;;4862502;29;20029;-78
2022/06/08 01:22:04;;;;;;;6.72;2.30;;;17.30;99.90;;;;;;4861701;29;20040;-79
2022/06/08 01:24:31;;;;;;;3.92;2.25;;;17.30;99.90;;;;;;4862120;29;20724;-79
2022/06/08 01:27:00;;;;;;;3.58;2.00;;;17.20;99.90;;;;;;4861878;29;20041;-79
2022/06/08 01:29:51;;;;;;;4.50;2.00;;;17.30;99.90;;;;;;4860612;29;20044;-78
2022/06/08 01:32:33;;;;;;;4.65;1.95;;;17.30;99.90;;;;;;4805484;29;20554;-78
2022/06/08 01:35:17;;;;;;;6.55;2.40;;;17.30;99.90;;;;;;4805519;29;20047;-78
2022/06/08 01:38:16;;;;;;;7.38;2.97;;;17.40;99.90;;;;;;4805006;29;20534;-78
2022/06/08 01:41:19;;;;;;;4.00;2.40;;;17.40;99.90;;;;;;4789688;29;20033;-78
2022/06/08 01:44:08;;;;;;;3.80;2.22;;;17.30;99.90;;;;;;4789431;29;20518;-78
2022/06/08 01:46:51;;;;;;;4.53;2.33;;;17.20;99.90;;;;;;4822541;29;20072;-78
2022/06/08 01:49:51;;;;;;;4.65;2.42;;;17.10;99.90;;;;;;4795807;29;20176;-78
2022/06/08 01:52:34;;;;;;;5.57;2.08;;;17.10;99.90;;;;;;4805481;29;20121;-78
2022/06/08 01:55:09;;;;;;;3.13;2.00;;;17.10;99.90;;;;;;4804520;29;20076;-78
2022/06/08 01:57:59;;;;;;;4.03;2.40;;;17.10;99.90;;;;;;4789315;29;20089;-78
2022/06/08 02:00:35;;;;;;;8.90;2.22;;;17.10;99.90;;;;;;4804839;29;20031;-78
2022/06/08 02:03:42;;;;;;;3.25;2.08;;;17.20;99.90;;;;;;4809265;29;20038;-79
2022/06/08 02:06:30;;;;;;;6.32;2.22;;;17.30;99.90;;;;;;4822208;29;20038;-78
2022/06/08 02:09:04;;;;;;;5.60;2.95;;;17.30;99.90;;;;;;4817352;29;20042;-78
2022/06/08 02:11:41;;;;;;;4.30;2.30;;;17.30;99.90;;;;;;4842886;29;20026;-78
2022/06/08 02:14:17;;;;;;;6.05;2.53;;;17.30;99.90;;;;;;4842806;29;20416;-78
2022/06/08 02:16:55;;;;;;;6.80;2.95;;;17.30;99.90;;;;;;4843011;29;20057;-78
2022/06/08 02:19:49;;;;;;;5.93;2.25;;;17.30;99.90;;;;;;4850142;29;20018;-78
2022/06/08 02:22:23;;;;;;;4.47;2.40;;;17.30;99.90;;;;;;4860473;29;20093;-78
2022/06/08 02:25:12;;;;;;;5.72;2.55;;;17.30;99.90;;;;;;4860789;29;20037;-79
2022/06/08 02:27:48;;;;;;;7.50;2.50;;;17.30;99.90;;;;;;4861103;29;20293;-78
2022/06/08 02:30:17;;;;;;;4.60;2.10;;;17.40;99.90;;;;;;4859670;29;20033;-78
2022/06/08 02:35:57;;;;;;;5.53;2.45;;;17.40;99.90;;;;;;4860925;29;20048;-78
2022/06/08 02:38:28;;;;;;;5.80;2.50;;;17.40;99.90;;;;;;4861306;29;20029;-79
2022/06/08 02:40:57;;;;;;;4.78;2.17;;;17.40;99.90;;;;;;4860579;29;20026;-78
2022/06/08 02:43:32;;;;;;;5.10;2.38;;;17.40;99.90;;;;;;4860720;29;20537;-78
2022/06/08 02:46:26;;;;;;;6.15;2.60;;;17.30;99.90;;;;;;4861279;29;20398;-78
2022/06/08 02:48:52;;;;;;;4.68;2.35;;;17.40;99.90;;;;;;4806597;29;20074;-79
2022/06/08 02:51:27;;;;;;;5.00;2.38;;;17.40;99.90;;;;;;4821962;29;20046;-78
2022/06/08 02:54:00;;;;;;;5.43;2.40;;;17.40;99.90;;;;;;4821824;29;20050;-79
2022/06/08 02:56:50;;;;;;;6.65;2.65;;;17.40;99.90;;;;;;4806154;29;20061;-79
2022/06/08 02:59:38;;;;;;;9.35;2.33;;;17.40;99.90;;;;;;4808778;29;20035;-78
2022/06/08 03:02:18;;;;;;;5.63;2.70;;;17.40;99.90;;;;;;4812481;29;20046;-79
2022/06/08 03:05:02;;;;;;;7.95;2.80;;;17.40;99.90;;;;;;4821983;29;20034;-79
2022/06/08 03:07:33;;;;;;;5.03;2.63;;;17.40;99.90;;;;;;4821933;29;20088;-79
2022/06/08 03:10:02;;;;;;;4.50;2.53;;;17.40;99.90;;;;;;4806439;29;20026;-79
2022/06/08 03:12:39;;;;;;;6.88;2.80;;;17.30;99.90;;;;;;4821765;29;20449;-79
2022/06/08 03:15:07;;;;;;;6.03;2.97;;;17.20;99.90;;;;;;4821509;29;20062;-79
2022/06/08 03:17:35;;;;;;;6.32;2.80;;;17.20;99.90;;;;;;4820842;29;20073;-78
2022/06/08 03:20:04;;;;;;;7.53;3.40;;;17.20;99.90;;;;;;4821808;29;20042;-79
2022/06/08 03:22:29;;;;;;;11.85;4.20;;;17.20;99.90;;;;;;4821611;29;20079;-78
2022/06/08 03:24:55;;;;;;;7.57;3.00;;;17.20;99.90;;;;;;4810980;29;20050;-78
2022/06/08 03:27:22;;;;;;;7.95;3.45;;;17.10;99.90;;;;;;4860246;29;20064;-78
2022/06/08 03:29:47;;;;;;;6.00;2.83;;;17.20;99.90;;;;;;4860552;29;20033;-78
2022/06/08 03:32:13;;;;;;;6.55;3.15;;;17.20;99.90;;;;;;4851736;29;20033;-79
2022/06/08 03:34:40;;;;;;;7.50;3.25;;;17.20;99.90;;;;;;4854341;29;20034;-79
2022/06/08 03:37:06;;;;;;;9.73;3.28;;;17.20;99.90;;;;;;4859728;29;20029;-79
2022/06/08 03:39:32;;;;;;;6.28;3.80;;;17.20;99.90;;;;;;4859764;29;20101;-79
2022/06/08 03:41:58;;;;;;;7.40;3.72;;;17.20;99.90;;;;;;4859928;29;20037;-79
2022/06/08 03:44:23;;;;;;;6.97;3.60;;;17.20;99.90;;;;;;4860414;29;20025;-79
2022/06/08 03:46:58;;;;;;;12.82;4.00;;;17.10;99.90;;;;;;4859472;29;20045;-78
2022/06/08 03:49:25;;;;;;;7.68;4.40;;;17.10;99.90;;;;;;4859493;29;20036;-78
2022/06/08 03:51:54;;;;;;;7.88;4.22;;;17.10;99.90;;;;;;4860042;29;20030;-78
2022/06/08 03:54:24;;;;;;;8.82;4.18;;;17.20;99.90;;;;;;4859224;29;20082;-78
2022/06/08 03:56:54;;;;;;;9.77;3.95;;;17.10;99.90;;;;;;4858954;29;20041;-79
2022/06/08 03:59:20;;;;;;;8.48;4.47;;;17.10;99.90;;;;;;4857515;29;20036;-79
2022/06/08 04:01:46;;;;;;;7.32;4.38;;;17.10;99.90;;;;;;4857487;29;20030;-79
2022/06/08 04:04:11;;;;;;;11.20;4.40;;;17.10;99.90;;;;;;4854142;29;20546;-78
2022/06/08 04:06:38;;;;;;;13.32;4.72;;;17.10;99.90;;;;;;4853543;29;20069;-78
2022/06/08 04:09:03;;;;;;;10.98;4.43;;;17.10;99.90;;;;;;4857981;29;20068;-79
2022/06/08 04:11:30;;;;;;;9.10;4.22;;;17.10;99.90;;;;;;4858150;29;20061;-79
2022/06/08 04:13:56;;;;;;;7.53;4.00;;;17.10;99.90;;;;;;4854673;29;20094;-82
2022/06/08 04:16:22;;;;;;;8.40;4.00;;;17.10;99.90;;;;;;4850561;29;20073;-78
2022/06/08 04:18:48;;;;;;;9.60;4.28;;;17.20;99.90;;;;;;4852785;29;20122;-81
2022/06/08 04:21:16;;;;;;;10.13;4.38;;;17.10;99.90;;;;;;4858865;29;20049;-81
2022/06/08 04:23:45;;;;;;;10.68;4.80;;;17.20;99.90;;;;;;4845732;29;20387;-81
2022/06/08 04:26:11;;;;;;;6.95;4.55;;;17.10;99.90;;;;;;4840925;29;20061;-81
2022/06/08 04:28:37;;;;;;;9.27;4.28;;;17.10;99.90;;;;;;4849320;29;20113;-79
2022/06/08 04:31:03;;;;;;;6.20;4.60;;;17.10;99.90;;;;;;4859121;29;20116;-79
2022/06/08 04:33:29;;;;;;;11.43;4.75;;;17.10;99.90;;;;;;4859189;29;20108;-79
2022/06/08 04:35:55;;;;;;;10.40;4.30;;;17.10;99.90;;;;;;4859122;29;20121;-79
2022/06/08 04:38:21;;;;;;;10.02;4.90;;;17.20;99.90;;;;;;4859636;29;20032;-79
2022/06/08 04:40:47;;;;;;;9.13;4.35;;;17.10;99.90;;;;;;4859089;29;20113;-79
2022/06/08 04:43:14;;;;;;;9.57;4.47;;;17.10;99.90;;;;;;4858026;29;20494;-80
2022/06/08 04:45:40;;;;;;;11.43;4.50;;;17.20;99.90;;;;;;4860123;29;20026;-81
2022/06/08 04:48:06;;;;;;;9.98;4.35;;;17.20;99.90;;;;;;4862684;29;20094;-84
2022/06/08 04:50:32;;;;;;;7.50;4.25;;;17.20;99.90;;;;;;4860726;29;20041;-82
2022/06/08 04:52:58;;;;;;;10.70;4.75;;;17.10;99.90;;;;;;4856079;29;20077;-79
2022/06/08 04:55:24;;;;;;;9.07;4.68;;;17.00;99.90;;;;;;4862687;29;20581;-80
2022/06/08 04:57:50;;;;;;;9.35;4.68;;;16.90;99.90;;;;;;4857400;29;20066;-77
2022/06/08 05:00:18;;;;;;;9.75;4.50;;;17.00;99.90;;;;;;4858666;29;20036;-79
2022/06/08 05:02:48;;;;;;;9.48;4.38;;;17.00;99.90;;;;;;4855396;29;20053;-79
2022/06/08 05:05:24;;;;;;;7.68;4.55;;;17.10;99.90;;;;;;4848780;29;20037;-79
2022/06/08 05:07:50;;;;;;;15.18;4.95;;;17.20;99.90;;;;;;4862128;29;20025;-81
2022/06/08 05:10:17;;;;;;;6.13;4.07;;;17.20;99.90;;;;;;4860408;29;20106;-80
2022/06/08 05:12:43;;;;;;;11.95;4.60;;;17.30;99.90;;;;;;4853681;29;20112;-79
2022/06/08 05:15:13;;;;;;;9.18;4.50;;;17.40;99.90;;;;;;4858622;29;20033;-79
2022/06/08 05:59:04;;;;;;;12.77;5.35;;;17.60;99.90;;;;;;5730813;23;20450;-78
2022/06/08 06:01:31;;;;;;;14.68;5.57;;;17.70;99.90;;;;;;4893456;29;20044;-77
2022/06/08 06:03:59;;;;;;;14.23;5.65;;;17.80;99.90;;;;;;4895850;29;20020;-78
2022/06/08 06:06:25;;;;;;;13.02;5.50;;;17.80;99.90;;;;;;4899731;29;20056;-80
2022/06/08 06:08:50;;;;;;;11.07;5.50;;;17.80;99.90;;;;;;4887251;29;20067;-78
2022/06/08 06:11:16;;;;;;;15.93;6.05;;;17.90;99.90;;;;;;4880376;29;20063;-78
2022/06/08 06:13:43;;;;;;;15.82;4.88;;;17.90;99.90;;;;;;4880072;29;20080;-78
2022/06/08 06:16:09;;;;;;;10.27;5.05;;;17.90;99.90;;;;;;4881539;29;20442;-78
2022/06/08 06:18:35;;;;;;;13.77;5.13;;;18.00;99.90;;;;;;4889833;29;20040;-78
2022/06/08 06:21:01;;;;;;;14.20;5.45;;;18.00;99.90;;;;;;4892432;29;20013;-78
2022/06/08 06:23:27;;;;;;;17.92;4.70;;;18.10;99.90;;;;;;4888719;29;20489;-78
2022/06/08 06:25:54;;;;;;;11.82;5.25;;;18.10;99.90;;;;;;4881323;29;20028;-77
2022/06/08 06:28:19;;;;;;;19.98;5.20;;;18.10;99.90;;;;;;4884996;29;20032;-79
2022/06/08 06:30:45;;;;;;;13.85;4.55;;;18.20;99.90;;;;;;4880942;29;20496;-81
2022/06/08 06:33:13;;;;;;;11.80;4.20;;;18.30;99.90;;;;;;4888273;29;20029;-78
2022/06/08 06:35:41;;;;;;;13.05;4.68;;;18.40;99.90;;;;;;4883195;29;20025;-79
2022/06/08 06:38:08;;;;;;;13.95;4.47;;;18.40;99.90;;;;;;4892099;29;20500;-79
2022/06/08 06:40:35;;;;;;;12.77;4.55;;;18.50;99.90;;;;;;4884527;29;20160;-78
2022/06/08 06:43:02;;;;;;;15.50;5.43;;;18.60;99.90;;;;;;4885540;29;20528;-79
2022/06/08 06:45:29;;;;;;;12.25;5.25;;;18.60;99.90;;;;;;4879081;29;20021;-79
2022/06/08 06:47:55;;;;;;;11.63;4.43;;;18.50;99.90;;;;;;4879389;29;20032;-79
2022/06/08 06:50:23;;;;;;;11.52;4.53;;;18.50;99.90;;;;;;4884152;29;20450;-78
2022/06/08 06:52:49;;;;;;;18.98;4.93;;;18.50;99.90;;;;;;4895968;29;20032;-78
2022/06/08 06:55:24;;;;;;;10.90;4.15;;;18.50;99.90;;;;;;4897874;29;20044;-78
2022/06/08 06:57:49;;;;;;;11.13;4.47;;;18.40;99.90;;;;;;4897634;29;20037;-78
2022/06/08 07:00:16;;;;;;;12.00;3.22;;;18.40;99.90;;;;;;4890729;29;20515;-78
2022/06/08 07:02:43;;;;;;;10.18;2.65;;;18.30;99.90;;;;;;4878582;29;20085;-79
2022/06/08 07:05:21;;;;;;;8.25;2.20;;;18.30;99.90;;;;;;4863826;29;20026;-78
2022/06/08 07:07:47;;;;;;;7.35;2.33;;;18.30;99.90;;;;;;4861314;29;20488;-78
2022/06/08 07:10:14;;;;;;;5.35;2.25;;;18.30;99.90;;;;;;4861293;29;20036;-78
2022/06/08 07:12:40;;;;;;;5.57;1.98;;;18.30;99.90;;;;;;4868863;29;20032;-78
2022/06/08 07:15:06;;;;;;;6.55;2.42;;;18.30;99.90;;;;;;4874346;29;20022;-78
2022/06/08 07:17:32;;;;;;;9.27;2.53;;;18.30;99.90;;;;;;4860064;29;20072;-78
2022/06/08 07:19:58;;;;;;;8.05;2.22;;;18.40;99.90;;;;;;4866102;29;20056;-78
2022/06/08 07:22:23;;;;;;;9.77;2.58;;;18.40;99.90;;;;;;4880589;29;20033;-78
2022/06/08 07:24:49;;;;;;;10.27;2.75;;;18.40;99.90;;;;;;4867963;29;20024;-78
2022/06/08 07:27:14;;;;;;;8.85;2.30;;;18.40;99.90;;;;;;4875939;29;20033;-78
2022/06/08 07:29:40;;;;;;;8.98;2.83;;;18.30;99.90;;;;;;4866867;29;20029;-78
2022/06/08 07:32:06;;;;;;;9.95;3.58;;;18.40;99.90;;;;;;4866877;29;20064;-78
2022/06/08 07:34:32;;;;;;;11.30;3.15;;;18.30;99.90;;;;;;4867081;29;20036;-78
2022/06/08 07:37:00;;;;;;;10.38;2.50;;;18.20;99.90;;;;;;4860078;29;20056;-79
2022/06/08 07:39:26;;;;;;;6.85;2.10;;;18.10;99.90;;;;;;4872249;29;20025;-79
2022/06/08 07:41:53;;;;;;;8.02;2.35;;;18.10;99.90;;;;;;4886168;29;20520;-79
2022/06/08 07:44:20;;;;;;;7.93;2.42;;;17.90;99.90;;;;;;4883858;29;20020;-79
2022/06/08 07:46:46;;;;;;;6.50;2.22;;;17.90;99.90;;;;;;4877777;29;20037;-79
2022/06/08 07:51:59;;;;;;;21.27;3.10;;;17.70;99.90;;;;;;4877198;29;20544;-79
2022/06/08 07:54:27;;;;;;;7.07;2.47;;;17.50;99.90;;;;;;4870824;29;20025;-82
2022/06/08 07:56:53;;;;;;;7.78;2.45;;;17.50;99.90;;;;;;4872756;29;20109;-80
2022/06/08 07:59:22;;;;;;;5.88;2.45;;;17.40;99.90;;;;;;4871245;29;20037;-79
2022/06/08 08:01:48;;;;;;;7.15;2.25;;;17.30;99.90;;;;;;4869209;29;20034;-78
2022/06/08 08:04:14;;;;;;;9.32;3.15;;;17.30;99.90;;;;;;4878437;29;20485;-79
2022/06/08 08:06:40;;;;;;;6.15;2.88;;;17.20;99.90;;;;;;4861092;29;20040;-79
2022/06/08 08:09:09;;;;;;;8.00;2.95;;;17.10;99.90;;;;;;4867107;29;20031;-79
2022/06/08 08:11:35;;;;;;;10.85;3.30;;;17.00;99.90;;;;;;4878227;29;20037;-79
2022/06/08 08:14:01;;;;;;;10.88;3.45;;;17.10;99.90;;;;;;4864110;29;20536;-79
2022/06/08 08:16:27;;;;;;;7.00;3.08;;;17.10;99.90;;;;;;4865358;29;20579;-78
2022/06/08 08:18:52;;;;;;;9.50;3.38;;;17.10;99.90;;;;;;4880231;29;20064;-79
2022/06/08 08:21:18;;;;;;;11.02;3.42;;;17.20;99.90;;;;;;4880035;29;20099;-79
2022/06/08 08:23:44;;;;;;;9.80;3.38;;;17.10;99.90;;;;;;4881801;29;20025;-79
2022/06/08 08:26:09;;;;;;;8.57;3.78;;;17.10;99.90;;;;;;4868324;29;20026;-79
2022/06/08 08:28:35;;;;;;;7.70;3.70;;;17.10;99.90;;;;;;4875694;29;20030;-79
2022/06/08 08:31:01;;;;;;;7.85;3.75;;;17.10;99.90;;;;;;4864047;29;20038;-78
2022/06/08 08:33:27;;;;;;;7.05;3.67;;;17.10;99.90;;;;;;4872620;29;20029;-79
2022/06/08 08:35:54;;;;;;;6.70;3.88;;;17.10;99.90;;;;;;4877001;29;20025;-78
2022/06/08 08:38:21;;;;;;;13.32;4.10;;;17.10;99.90;;;;;;4873428;29;20508;-79
2022/06/08 08:40:53;;;;;;;15.63;4.80;;;17.10;99.90;;;;;;4872278;29;20185;-79
2022/06/08 08:43:25;;;;;;;7.72;4.45;;;17.10;99.90;;;;;;4869820;29;20063;-79
2022/06/08 08:46:06;;;;;;;12.15;4.40;;;17.20;99.90;;;;;;4876719;29;20021;-78
2022/06/08 08:48:59;;;;;;;8.70;4.35;;;17.20;99.90;;;;;;4868912;29;20069;-77
2022/06/08 08:51:32;;;;;;;11.80;5.05;;;17.10;99.90;;;;;;4867285;29;20041;-78
2022/06/08 10:09:50;;;;;;;9.75;4.20;;;18.50;99.90;;;;;;5083224;23;20060;-83
2022/06/08 10:12:50;;;;;;;9.90;4.18;;;18.80;99.90;;;;;;4896012;29;20071;-83
2022/06/08 10:15:34;;;;;;;10.75;4.18;;;19.00;99.90;;;;;;4892288;29;20028;-83
2022/06/08 10:18:10;;;;;;;10.18;4.32;;;19.20;99.90;;;;;;4884382;29;20475;-82
2022/06/08 10:20:39;;;;;;;7.25;4.30;;;19.30;99.90;;;;;;4887994;29;20393;-84
2022/06/08 10:23:28;;;;;;;7.75;3.78;;;19.30;99.90;;;;;;4888109;29;20021;-82
2022/06/08 10:26:00;;;;;;;11.05;4.30;;;19.00;99.90;;;;;;4890674;29;20032;-82
2022/06/08 10:28:41;;;;;;;11.70;4.65;;;19.10;99.90;;;;;;4894428;29;20028;-82
2022/06/08 10:31:18;;;;;;;17.73;4.55;;;19.10;99.90;;;;;;4884201;29;20503;-82
2022/06/08 10:34:04;;;;;;;11.45;5.10;;;19.20;99.90;;;;;;4889490;29;20042;-82
2022/06/08 10:36:32;;;;;;;12.68;5.20;;;19.30;99.90;;;;;;4883459;29;20053;-81
2022/06/08 10:39:01;;;;;;;9.75;4.70;;;19.30;99.90;;;;;;4896145;29;20137;-82
2022/06/08 10:44:33;;;;;;;9.15;4.90;;;19.60;99.90;;;;;;4894479;29;20088;-83
2022/06/08 10:47:16;;;;;;;8.75;4.28;;;19.90;99.90;;;;;;4886979;29;20036;-82
2022/06/08 10:49:47;;;;;;;6.88;3.72;;;19.80;99.90;;;;;;4883053;29;20089;-83
2022/06/08 10:52:15;;;;;;;6.72;4.22;;;19.70;99.90;;;;;;4891527;29;20392;-82
2022/06/08 10:54:54;;;;;;;9.82;4.15;;;19.70;99.90;;;;;;4883329;29;20041;-82
2022/06/08 10:57:42;;;;;;;7.75;3.97;;;19.50;99.90;;;;;;4890182;29;20055;-82
2022/06/08 11:00:19;;;;;;;9.50;3.95;;;19.40;99.90;;;;;;4892210;29;20021;-82
2022/06/08 11:03:03;;;;;;;8.65;4.07;;;19.50;99.90;;;;;;4896955;29;20053;-81
2022/06/08 11:05:44;;;;;;;9.80;4.30;;;19.70;99.90;;;;;;4890154;29;20092;-81
2022/06/08 11:08:10;;;;;;;10.93;4.20;;;19.70;99.90;;;;;;4882881;29;20044;-82
2022/06/08 11:10:44;;;;;;;10.57;4.53;;;20.00;99.90;;;;;;4874993;29;20032;-82
2022/06/08 11:13:33;;;;;;;5.20;3.78;;;19.90;99.90;;;;;;4868386;29;20497;-82
2022/06/08 11:16:36;;;;;;;10.48;4.30;;;19.90;99.90;;;;;;4876078;29;20100;-82
2022/06/08 11:19:14;;;;;;;12.05;4.82;;;19.80;99.90;;;;;;4858133;29;20409;-83
2022/06/08 11:21:57;;;;;;;10.15;5.00;;;19.80;99.90;;;;;;4884802;29;20039;-83
2022/06/08 11:24:39;;;;;;;13.77;4.35;;;19.80;99.90;;;;;;4876812;29;20017;-82
2022/06/08 11:27:11;;;;;;;8.73;4.18;;;19.80;99.90;;;;;;4860839;29;20033;-82
2022/06/08 11:29:46;;;;;;;12.30;5.13;;;19.80;99.90;;;;;;4884369;29;20036;-81
2022/06/08 11:33:00;;;;;;;9.23;5.05;;;19.70;99.90;;;;;;4878026;29;20085;-81
2022/06/08 11:35:49;;;;;;;8.45;4.18;;;19.50;99.90;;;;;;4868868;29;20049;-80
2022/06/08 11:38:19;;;;;;;10.90;4.38;;;19.60;99.90;;;;;;4869717;29;20124;-80
2022/06/08 11:40:46;;;;;;;9.98;4.85;;;19.60;99.90;;;;;;4881352;29;20041;-80
2022/06/08 11:43:15;;;;;;;7.18;4.35;;;19.50;99.90;;;;;;4886929;29;20020;-80
2022/06/08 11:45:53;;;;;;;10.15;4.90;;;19.60;99.90;;;;;;4887850;29;20394;-81
2022/06/08 11:48:24;;;;;;;10.73;4.80;;;19.70;99.90;;;;;;4887582;29;20024;-80
2022/06/08 11:50:58;;;;;;;14.55;4.50;;;19.80;99.90;;;;;;4888080;29;20974;-81
2022/06/08 11:53:29;;;;;;;10.02;4.40;;;19.90;99.90;;;;;;4885031;29;20408;-81
2022/06/08 11:56:29;;;;;;;8.13;4.60;;;19.80;99.90;;;;;;4878176;29;20072;-80
2022/06/08 11:58:58;;;;;;;10.25;4.90;;;19.70;99.90;;;;;;4878700;29;20097;-81
2022/06/08 12:01:28;;;;;;;8.90;4.45;;;19.60;99.90;;;;;;4869436;29;20021;-84
2022/06/08 12:04:16;;;;;;;8.30;4.50;;;19.60;99.90;;;;;;4859995;29;20037;-82
2022/06/08 12:06:44;;;;;;;5.93;4.05;;;19.70;99.90;;;;;;4866142;29;20025;-82
2022/06/08 12:09:23;;;;;;;11.57;4.65;;;19.70;99.90;;;;;;4869128;29;20053;-82
2022/06/08 12:11:53;;;;;;;14.63;5.40;;;19.80;99.90;;;;;;4885956;29;20041;-81
2022/06/08 12:14:25;;;;;;;7.55;4.03;;;20.10;99.90;;;;;;4878565;29;20037;-81
2022/06/08 12:17:12;;;;;;;7.13;3.83;;;20.10;99.90;;;;;;4891116;29;20039;-81
2022/06/08 12:19:55;;;;;;;6.28;3.83;;;20.10;99.90;;;;;;4893759;29;20064;-81
2022/06/08 12:22:24;;;;;;;8.57;4.28;;;20.40;99.90;;;;;;4878303;29;20027;-82
2022/06/08 12:25:04;;;;;;;8.50;4.32;;;20.70;99.90;;;;;;4877307;29;20058;-82
2022/06/08 12:27:38;;;;;;;9.00;4.22;;;20.60;99.90;;;;;;4860194;29;20468;-80
2022/06/08 12:30:24;;;;;;;6.63;3.95;;;20.60;99.90;;;;;;4878245;29;20041;-81
2022/06/08 12:32:52;;;;;;;10.75;4.00;;;20.60;99.90;;;;;;4878356;29;20093;-80
2022/06/08 12:35:40;;;;;;;6.90;4.07;;;20.90;99.90;;;;;;4873205;29;20126;-79
2022/06/08 12:38:17;;;;;;;7.72;3.53;;;20.70;99.90;;;;;;4885022;29;20687;-80
2022/06/08 12:41:02;;;;;;;10.57;4.05;;;20.60;99.90;;;;;;4896371;29;20425;-80
2022/06/08 12:44:06;;;;;;;5.90;3.10;;;20.70;99.90;;;;;;4888555;29;20492;-80
2022/06/08 12:46:35;;;;;;;6.75;3.05;;;20.60;99.90;;;;;;4873983;29;20041;-80
2022/06/08 12:49:12;;;;;;;3.70;2.30;;;20.60;99.90;;;;;;4880119;29;20084;-79
2022/06/08 12:51:52;;;;;;;6.57;2.60;;;20.70;99.90;;;;;;4859466;29;20521;-79
2022/06/08 12:54:23;;;;;;;5.38;2.72;;;20.90;99.90;;;;;;4882781;29;20489;-81
2022/06/08 12:56:52;;;;;;;5.30;2.50;;;20.90;99.90;;;;;;4859538;29;20037;-81
2022/06/08 12:59:19;;;;;;;5.15;2.15;;;21.00;99.90;;;;;;4889184;29;20456;-81
2022/06/08 13:01:45;;;;;;;3.40;1.75;;;21.10;99.90;;;;;;4869015;29;20034;-81
2022/06/08 13:04:16;;;;;;;2.80;1.70;;;20.90;99.90;;;;;;4880665;29;20024;-80
2022/06/08 13:06:42;;;;;;;;;;;20.60;99.90;;;;;;4864937;29;20098;-80
2022/06/08 13:09:13;;;;;;;6.18;1.63;;;20.60;99.90;;;;;;4872886;29;19931;-80
2022/06/08 13:11:42;;;;;;;4.13;1.77;;;20.60;99.90;;;;;;4871065;29;20040;-80
2022/06/08 13:14:16;;;;;;;3.92;1.60;;;20.40;99.90;;;;;;4880920;29;20033;-80
2022/06/08 13:16:44;;;;;;;4.30;1.98;;;20.60;99.90;;;;;;4879905;29;20021;-81
2022/06/08 13:19:12;;;;;;;3.85;1.80;;;20.60;99.90;;;;;;4865856;29;20049;-80
2022/06/08 13:21:39;;;;;;;3.67;1.80;;;20.60;99.90;;;;;;4874604;29;20029;-81
2022/06/08 13:24:05;;;;;;;3.30;1.83;;;20.60;99.90;;;;;;4868173;29;20028;-82
2022/06/08 13:26:34;;;;;;;3.13;1.90;;;20.60;99.90;;;;;;4862806;29;20025;-82
2022/06/08 13:29:00;;;;;;;5.43;2.03;;;20.60;99.90;;;;;;4867600;29;20029;-82
2022/06/08 13:31:26;;;;;;;3.28;1.88;;;20.50;99.90;;;;;;4879969;29;20033;-83
2022/06/08 13:33:59;;;;;;;4.70;1.90;;;20.50;99.90;;;;;;4877933;29;20409;-81
2022/06/08 13:36:56;;;;;;;6.47;1.75;;;20.40;99.90;;;;;;4871759;29;20081;-83
2022/06/08 13:39:32;;;;;;;6.30;1.92;;;20.30;99.90;;;;;;4862619;29;20431;-83
2022/06/08 13:42:10;;;;;;;4.13;1.88;;;20.30;99.90;;;;;;4863602;29;20398;-83
2022/06/08 13:44:40;;;;;;;5.13;1.83;;;20.30;99.90;;;;;;4863371;29;20057;-83
2022/06/08 13:47:18;;;;;;;2.72;1.70;;;20.20;99.90;;;;;;4872427;29;20032;-83
2022/06/08 17:21:27;;;;;;;2.90;0.95;;;19.50;99.90;;;;;;5808650;23;20035;-81
2022/06/08 17:23:52;;;;;;;2.58;0.90;;;19.50;99.90;;;;;;4892643;29;20037;-81
2022/06/08 17:26:19;;;;;;;2.25;0.90;;;19.50;99.90;;;;;;4883784;29;20425;-81
2022/06/08 17:28:49;;;;;;;4.70;1.10;;;19.60;99.90;;;;;;4900067;29;20032;-81
2022/06/08 17:31:15;;;;;;;6.57;1.27;;;19.60;99.90;;;;;;4892374;29;20025;-82
2022/06/08 17:33:41;;;;;;;2.72;1.20;;;19.60;99.90;;;;;;4881640;29;20112;-83
2022/06/08 17:36:08;;;;;;;1.95;0.77;;;19.60;99.90;;;;;;4897115;29;20472;-83
2022/06/08 17:38:33;;;;;;;1.17;0.77;;;19.70;99.90;;;;;;4893124;29;20473;-83
2022/06/08 17:40:59;;;;;;;2.70;0.70;;;19.70;99.90;;;;;;4893873;29;20086;-83
2022/06/08 17:43:25;;;;;;;1.83;0.85;;;19.60;99.90;;;;;;4888074;29;20140;-83
2022/06/08 17:45:51;;;;;;;1.65;0.68;;;19.50;99.90;;;;;;4881266;29;20157;-83
2022/06/08 17:48:17;;;;;;;2.65;0.82;;;19.50;99.90;;;;;;4892895;29;20031;-82
2022/06/08 17:50:44;;;;;;;0.70;0.70;;;19.50;99.90;;;;;;4892642;29;20029;-77
2022/06/08 17:53:09;;;;;;;1.73;0.85;;;19.50;99.90;;;;;;4893431;29;20024;-81
2022/06/08 17:55:36;;;;;;;0.90;0.80;;;19.50;99.90;;;;;;4887723;29;20032;-85
2022/06/08 17:58:02;;;;;;;1.10;0.73;;;19.50;99.90;;;;;;4890667;29;20485;-81
2022/06/08 18:00:28;;;;;;;1.27;0.80;;;19.60;99.90;;;;;;4881163;29;20100;-82
2022/06/08 18:02:54;;;;;;;2.60;1.00;;;19.60;99.90;;;;;;4887615;29;20021;-81
2022/06/08 18:05:20;;;;;;;2.35;1.20;;;19.70;99.90;;;;;;4891487;29;20527;-83
2022/06/08 18:07:48;;;;;;;2.80;0.68;;;19.80;99.90;;;;;;4897112;29;20016;-83
2022/06/08 18:10:21;;;;;;;3.08;0.80;;;19.70;99.90;;;;;;4889095;29;20028;-77
2022/06/08 18:12:48;;;;;;;1.60;0.70;;;19.80;99.90;;;;;;4889480;29;20460;-83
2022/06/08 18:15:15;;;;;;;5.32;0.95;;;19.70;99.90;;;;;;4880975;29;20468;-86
2022/06/08 18:17:41;;;;;;;0.90;0.68;;;19.70;99.90;;;;;;4893765;29;20025;-87
2022/06/08 18:20:08;;;;;;;1.60;1.02;;;19.60;99.90;;;;;;4880338;29;20413;-86
2022/06/08 18:22:37;;;;;;;1.02;0.75;;;19.70;99.90;;;;;;4890401;29;20504;-88
2022/06/08 18:25:03;;;;;;;3.45;0.90;;;19.70;99.90;;;;;;4897203;29;20481;-78
2022/06/08 18:27:35;;;;;;;1.52;0.95;;;19.60;99.90;;;;;;4893757;29;20033;-84
2022/06/08 18:30:01;;;;;;;2.35;0.82;;;19.70;99.90;;;;;;4896240;29;20029;-86
2022/06/08 18:32:29;;;;;;;2.25;1.15;;;19.60;99.90;;;;;;4898427;29;20059;-88
2022/06/08 18:34:55;;;;;;;3.60;1.00;;;19.60;99.90;;;;;;4897027;29;20067;-86
2022/06/08 18:37:22;;;;;;;2.60;0.90;;;19.60;99.90;;;;;;4896606;29;20526;-86
2022/06/08 18:39:48;;;;;;;1.33;0.82;;;19.60;99.90;;;;;;4897609;29;20025;-86
2022/06/08 18:42:19;;;;;;;1.27;0.80;;;19.60;99.90;;;;;;4897542;29;20025;-76
2022/06/08 18:44:44;;;;;;;2.70;1.15;;;19.60;99.90;;;;;;4896366;29;20039;-85